createdAt,value
2019-04-07T00:00:41.091Z,90.30
2019-04-07T00:03:08.393Z,90.50
2019-04-07T00:05:36.271Z,90.40
2019-04-07T00:08:04.442Z,90.50
2019-04-07T00:10:31.856Z,90.40
2019-04-07T00:12:59.553Z,89.80
2019-04-07T00:15:27.711Z,89.70
2019-04-07T00:17:55.360Z,89.80
2019-04-07T00:20:23.665Z,90.10
2019-04-07T00:22:51.189Z,90.10
2019-04-07T00:25:18.376Z,90.00
2019-04-07T00:27:45.634Z,90.20
2019-04-07T00:30:14.062Z,90.40
2019-04-07T00:32:42.065Z,90.30
2019-04-07T00:35:21.596Z,90.30
2019-04-07T00:37:38.805Z,90.50
2019-04-07T00:40:06.984Z,90.60
2019-04-07T00:42:34.689Z,91.30
2019-04-07T00:45:02.221Z,91.20
2019-04-07T00:47:29.631Z,91.40
2019-04-07T00:49:57.500Z,90.90
2019-04-07T00:52:24.912Z,91.30
2019-04-07T00:54:52.274Z,91.20
2019-04-07T00:57:19.893Z,91.40
2019-04-07T00:59:47.332Z,91.30
2019-04-07T01:02:14.934Z,91.50
2019-04-07T01:04:42.184Z,91.30
2019-04-07T01:07:09.370Z,91.40
2019-04-07T01:09:36.615Z,90.70
2019-04-07T01:12:04.157Z,90.90
2019-04-07T01:14:32.430Z,90.80
2019-04-07T01:17:00.325Z,90.80
2019-04-07T01:19:28.867Z,90.70
2019-04-07T01:21:56.309Z,90.80
2019-04-07T01:24:24.068Z,91.00
2019-04-07T01:26:51.478Z,90.70
2019-04-07T01:29:18.694Z,90.50
2019-04-07T01:31:45.975Z,90.60
2019-04-07T01:34:13.455Z,90.60
2019-04-07T01:36:42.885Z,90.40
2019-04-07T01:39:11.894Z,90.30
2019-04-07T01:42:13.833Z,90.40
2019-04-07T01:45:03.711Z,90.20
2019-04-07T01:47:38.819Z,90.80
2019-04-07T01:50:28.584Z,91.10
2019-04-07T01:53:14.821Z,91.10
2019-04-07T01:56:00.246Z,91.20
2019-04-07T01:58:50.965Z,90.80
2019-04-07T02:01:42.756Z,90.70
2019-04-07T02:04:32.508Z,91.00
2019-04-07T02:07:10.715Z,90.50
2019-04-07T02:09:56.497Z,90.40
2019-04-07T02:12:50.642Z,90.90
2019-04-07T02:15:30.598Z,91.20
2019-04-07T02:18:13.530Z,91.30
2019-04-07T02:21:15.379Z,91.30
2019-04-07T02:23:59.070Z,91.20
2019-04-07T02:26:35.726Z,91.00
2019-04-07T02:29:29.839Z,91.30
2019-04-07T02:32:17.433Z,91.20
2019-04-07T02:34:53.039Z,90.90
2019-04-07T02:37:40.850Z,91.30
2019-04-07T02:40:16.497Z,91.70
2019-04-07T02:43:03.024Z,90.40
2019-04-07T02:45:49.307Z,90.50
2019-04-07T02:48:48.881Z,90.00
2019-04-07T02:51:38.707Z,90.20
2019-04-07T02:54:15.484Z,90.60
2019-04-07T02:56:54.339Z,90.80
2019-04-07T02:59:42.783Z,91.10
2019-04-07T03:02:20.842Z,91.30
2019-04-07T03:04:58.723Z,91.50
2019-04-07T03:07:48.887Z,90.60
2019-04-07T03:10:36.605Z,90.80
2019-04-07T03:13:19.323Z,91.60
2019-04-07T03:16:06.234Z,92.50
2019-04-07T03:18:44.378Z,92.90
2019-04-07T03:21:31.397Z,93.20
2019-04-07T03:24:15.050Z,93.40
2019-04-07T03:27:02.583Z,92.90
2019-04-07T03:29:42.003Z,92.60
2019-04-07T03:32:25.974Z,92.20
2019-04-07T03:35:12.406Z,92.40
2019-04-07T03:38:04.666Z,92.10
2019-04-07T03:40:57.524Z,92.00
2019-04-07T03:43:35.854Z,92.10
2019-04-07T03:46:21.569Z,91.70
2019-04-07T03:49:01.909Z,92.00
2019-04-07T03:51:36.426Z,92.10
2019-04-07T03:54:12.194Z,91.80
2019-04-07T03:56:48.512Z,91.90
2019-04-07T03:59:42.554Z,92.40
2019-04-07T04:02:33.326Z,92.70
2019-04-07T04:05:14.729Z,92.80
2019-04-07T04:08:09.466Z,92.80
2019-04-07T04:10:43.580Z,91.90
2019-04-07T04:13:37.840Z,91.70
2019-04-07T04:16:08.856Z,91.70
2019-04-07T04:18:35.963Z,92.00
2019-04-07T04:21:03.605Z,92.20
2019-04-07T04:23:31.700Z,92.20
2019-04-07T04:25:59.184Z,92.40
2019-04-07T04:28:27.361Z,92.30
2019-04-07T04:30:56.545Z,91.90
2019-04-07T04:33:24.148Z,92.00
2019-04-07T04:35:51.876Z,91.60
2019-04-07T04:38:20.091Z,91.10
2019-04-07T04:40:48.070Z,91.40
2019-04-07T04:43:15.645Z,91.40
2019-04-07T04:45:43.010Z,91.60
2019-04-07T04:48:10.389Z,91.90
2019-04-07T04:50:38.461Z,91.80
2019-04-07T04:53:06.293Z,92.20
2019-04-07T04:55:33.821Z,92.20
2019-04-07T04:58:02.069Z,92.10
2019-04-07T05:00:29.513Z,92.20
2019-04-07T05:02:57.188Z,92.20
2019-04-07T05:05:25.520Z,92.10
2019-04-07T05:07:59.067Z,91.90
2019-04-07T05:10:22.287Z,92.30
2019-04-07T05:12:50.374Z,92.30
2019-04-07T05:15:17.879Z,92.60
2019-04-07T05:17:45.381Z,92.80
2019-04-07T05:20:13.442Z,92.80
2019-04-07T05:22:41.230Z,92.30
2019-04-07T05:25:08.606Z,92.50
2019-04-07T05:27:35.997Z,92.70
2019-04-07T05:30:05.509Z,92.50
2019-04-07T05:32:33.387Z,92.30
2019-04-07T05:35:01.079Z,92.80
2019-04-07T05:37:30.485Z,92.70
2019-04-07T05:39:57.978Z,93.60
2019-04-07T05:42:25.581Z,93.70
2019-04-07T05:44:52.881Z,93.90
2019-04-07T05:47:21.280Z,94.20
2019-04-07T05:49:48.768Z,94.00
2019-04-07T05:52:16.206Z,94.00
2019-04-07T05:54:43.867Z,93.50
2019-04-07T05:57:11.892Z,93.40
2019-04-07T05:59:39.881Z,93.50
2019-04-07T06:02:08.974Z,93.70
2019-04-07T06:04:36.731Z,93.70
2019-04-07T06:07:04.607Z,93.30
2019-04-07T06:09:33.774Z,93.40
2019-04-07T06:12:03.033Z,93.20
2019-04-07T06:14:30.391Z,93.40
2019-04-07T06:16:57.807Z,93.30
2019-04-07T06:19:25.044Z,92.60
2019-04-07T06:21:52.696Z,92.50
2019-04-07T06:24:22.234Z,92.60
2019-04-07T06:26:50.278Z,92.60
2019-04-07T06:29:18.298Z,92.40
2019-04-07T06:31:45.602Z,92.50
2019-04-07T06:34:12.831Z,92.70
2019-04-07T06:36:40.604Z,92.80
2019-04-07T06:39:08.272Z,93.00
2019-04-07T06:41:36.711Z,92.50
2019-04-07T06:44:11.945Z,92.50
2019-04-07T06:46:42.409Z,92.00
2019-04-07T06:49:29.637Z,92.00
2019-04-07T06:52:14.779Z,92.50
2019-04-07T06:55:07.701Z,92.70
2019-04-07T06:58:00.525Z,92.50
2019-04-07T07:00:47.697Z,92.60
2019-04-07T07:03:36.037Z,92.80
2019-04-07T07:06:11.059Z,92.30
2019-04-07T07:08:57.317Z,92.00
2019-04-07T07:11:44.265Z,92.60
2019-04-07T07:14:43.731Z,92.50
2019-04-07T07:17:32.317Z,92.80
2019-04-07T07:20:28.790Z,92.10
2019-04-07T07:23:00.696Z,91.90
2019-04-07T07:25:29.819Z,91.80
2019-04-07T07:27:57.765Z,92.30
2019-04-07T07:30:25.196Z,92.30
2019-04-07T07:32:52.392Z,92.00
2019-04-07T07:35:19.903Z,92.10
2019-04-07T07:37:47.598Z,91.70
2019-04-07T07:40:18.040Z,91.60
2019-04-07T07:42:46.105Z,91.20
2019-04-07T07:45:14.113Z,91.20
2019-04-07T07:47:42.622Z,91.30
2019-04-07T07:50:10.307Z,91.60
2019-04-07T07:52:37.746Z,91.70
2019-04-07T07:55:05.806Z,91.90
2019-04-07T07:57:33.835Z,92.40
2019-04-07T08:00:05.131Z,92.20
2019-04-07T08:02:31.919Z,92.70
2019-04-07T08:04:59.351Z,91.80
2019-04-07T08:07:26.914Z,91.90
2019-04-07T08:09:55.636Z,91.00
2019-04-07T08:12:23.744Z,90.30
2019-04-07T08:14:55.082Z,90.00
2019-04-07T08:17:20.620Z,89.70
2019-04-07T08:19:48.034Z,88.80
2019-04-07T08:22:26.534Z,88.50
2019-04-07T08:24:49.373Z,87.40
2019-04-07T08:27:14.972Z,86.90
2019-04-07T08:29:42.411Z,86.00
2019-04-07T08:32:11.101Z,86.30
2019-04-07T08:34:38.802Z,86.00
2019-04-07T08:37:06.095Z,85.70
2019-04-07T08:39:36.037Z,85.70
2019-04-07T08:42:07.621Z,85.80
2019-04-07T08:44:31.944Z,85.70
2019-04-07T08:46:59.232Z,85.60
2019-04-07T08:49:26.386Z,85.50
2019-04-07T08:51:53.987Z,85.80
2019-04-07T08:54:21.509Z,85.30
2019-04-07T08:56:48.822Z,85.00
2019-04-07T08:59:17.223Z,84.90
2019-04-07T09:01:44.735Z,84.30
2019-04-07T09:04:15.096Z,84.30
2019-04-07T09:06:41.148Z,83.40
2019-04-07T09:09:09.075Z,82.90
2019-04-07T09:11:39.714Z,83.20
2019-04-07T09:14:07.966Z,83.50
2019-04-07T09:17:10.583Z,83.20
2019-04-07T09:19:55.401Z,83.40
2019-04-07T09:22:30.747Z,83.10
2019-04-07T09:25:19.425Z,82.10
2019-04-07T09:27:51.350Z,81.90
2019-04-07T09:30:39.105Z,81.30
2019-04-07T09:33:15.992Z,81.60
2019-04-07T09:36:03.652Z,81.10
2019-04-07T09:38:56.981Z,80.60
2019-04-07T09:41:43.858Z,80.60
2019-04-07T09:44:26.528Z,80.50
2019-04-07T09:47:05.361Z,80.30
2019-04-07T09:50:01.826Z,80.20
2019-04-07T09:52:52.341Z,79.30
2019-04-07T09:55:32.074Z,79.30
2019-04-07T09:58:26.152Z,78.80
2019-04-07T10:01:20.774Z,78.80
2019-04-07T10:04:12.053Z,78.10
2019-04-07T10:07:01.201Z,77.70
2019-04-07T10:09:43.608Z,77.50
2019-04-07T10:12:29.948Z,76.70
2019-04-07T10:17:51.767Z,77.40
2019-04-07T10:20:37.395Z,77.60
2019-04-07T10:23:23.171Z,77.60
2019-04-07T10:29:04.461Z,77.70
2019-04-07T10:32:03.471Z,76.90
2019-04-07T10:35:01.051Z,77.00
2019-04-07T10:38:00.805Z,77.80
2019-04-07T10:40:49.147Z,77.30
2019-04-07T10:43:39.304Z,76.90
2019-04-07T10:46:24.839Z,76.80
2019-04-07T10:49:11.816Z,76.60
2019-04-07T10:52:07.651Z,76.10
2019-04-07T10:54:46.245Z,76.60
2019-04-07T10:57:23.868Z,75.50
2019-04-07T11:00:16.303Z,75.20
2019-04-07T11:03:12.267Z,75.90
2019-04-07T11:05:58.204Z,76.00
2019-04-07T11:08:37.579Z,75.80
2019-04-07T11:11:23.180Z,74.90
2019-04-07T11:14:04.842Z,74.40
2019-04-07T11:16:49.948Z,75.50
2019-04-07T11:19:38.141Z,75.60
2019-04-07T11:22:14.915Z,74.20
2019-04-07T11:25:16.892Z,72.70
2019-04-07T11:28:08.894Z,72.20
2019-04-07T11:31:03.849Z,72.50
2019-04-07T11:33:47.042Z,71.30
2019-04-07T11:36:31.133Z,71.70
2019-04-07T11:39:27.467Z,72.30
2019-04-07T11:44:46.801Z,70.20
2019-04-07T11:47:23.132Z,70.60
2019-04-07T11:50:16.770Z,70.70
2019-04-07T11:52:56.211Z,70.10
2019-04-07T11:55:34.499Z,70.30
2019-04-07T11:58:17.761Z,69.00
2019-04-07T12:00:53.920Z,69.90
2019-04-07T12:03:40.427Z,69.40
2019-04-07T12:06:33.249Z,69.50
2019-04-07T12:09:19.601Z,69.70
2019-04-07T12:11:59.309Z,69.50
2019-04-07T12:14:52.178Z,70.10
2019-04-07T12:17:33.971Z,68.40
2019-04-07T12:20:08.228Z,69.20
2019-04-07T12:22:48.003Z,66.00
2019-04-07T12:25:26.745Z,68.50
2019-04-07T12:28:15.873Z,67.70
2019-04-07T12:30:51.269Z,68.80
2019-04-07T12:33:37.482Z,66.90
2019-04-07T12:36:23.471Z,67.50
2019-04-07T12:39:06.246Z,66.50
2019-04-07T12:41:43.700Z,67.50
2019-04-07T12:44:20.092Z,65.50
2019-04-07T12:47:19.215Z,66.20
2019-04-07T12:50:19.715Z,65.90
2019-04-07T12:53:06.864Z,65.50
2019-04-07T12:56:00.986Z,66.10
2019-04-07T12:58:36.902Z,66.20
2019-04-07T13:01:19.736Z,67.00
2019-04-07T13:03:55.827Z,66.60
2019-04-07T13:06:44.252Z,66.50
2019-04-07T13:09:33.091Z,67.00
2019-04-07T13:12:20.278Z,66.90
2019-04-07T13:15:11.015Z,66.80
2019-04-07T13:17:44.968Z,66.70
2019-04-07T13:20:44.195Z,66.30
2019-04-07T13:23:22.286Z,67.40
2019-04-07T13:26:15.357Z,67.50
2019-04-07T13:29:05.309Z,67.30
2019-04-07T13:31:57.486Z,67.80
2019-04-07T13:34:41.386Z,68.00
2019-04-07T13:37:33.803Z,66.80
2019-04-07T13:40:24.116Z,67.20
2019-04-07T13:43:16.620Z,67.80
2019-04-07T13:46:17.482Z,67.70
2019-04-07T13:49:00.131Z,68.10
2019-04-07T13:51:36.602Z,68.10
2019-04-07T13:54:16.971Z,68.00
2019-04-07T13:57:05.600Z,68.10
2019-04-07T14:00:01.695Z,68.70
2019-04-07T14:02:46.014Z,69.00
2019-04-07T14:05:24.929Z,69.00
2019-04-07T14:08:14.936Z,69.60
2019-04-07T14:10:50.681Z,69.50
2019-04-07T14:13:52.315Z,69.10
2019-04-07T14:16:46.456Z,69.40
2019-04-07T14:19:40.344Z,69.80
2019-04-07T14:22:23.379Z,69.80
2019-04-07T14:25:16.757Z,69.50
2019-04-07T14:27:54.806Z,70.10
2019-04-07T14:30:54.238Z,70.10
2019-04-07T14:33:41.253Z,69.50
2019-04-07T14:36:17.376Z,70.10
2019-04-07T14:39:04.234Z,70.30
2019-04-07T14:41:41.197Z,69.70
2019-04-07T14:44:40.207Z,69.60
2019-04-07T14:47:31.405Z,69.60
2019-04-07T14:50:07.879Z,69.10
2019-04-07T14:52:49.963Z,68.80
2019-04-07T14:55:36.837Z,68.90
2019-04-07T14:58:17.246Z,68.70
2019-04-07T15:00:54.710Z,68.30
2019-04-07T15:03:22.055Z,68.30
2019-04-07T15:05:50.627Z,67.70
2019-04-07T15:08:44.253Z,67.70
2019-04-07T15:11:29.740Z,67.50
2019-04-07T15:14:00.097Z,67.20
2019-04-07T15:16:27.381Z,67.20
2019-04-07T15:18:55.120Z,66.50
2019-04-07T15:21:23.816Z,66.60
2019-04-07T15:23:51.831Z,66.80
2019-04-07T15:26:19.297Z,66.60
2019-04-07T15:28:46.804Z,66.80
2019-04-07T15:31:17.492Z,66.60
2019-04-07T15:33:43.625Z,67.70
2019-04-07T15:36:10.888Z,66.90
2019-04-07T15:38:40.306Z,66.70
2019-04-07T15:41:09.872Z,67.00
2019-04-07T15:43:37.160Z,66.70
2019-04-07T15:46:05.395Z,67.10
2019-04-07T15:48:32.880Z,66.70
2019-04-07T15:51:02.513Z,67.10
2019-04-07T15:53:30.889Z,67.00
2019-04-07T15:56:03.032Z,67.20
2019-04-07T15:58:28.470Z,67.20
2019-04-07T16:00:56.921Z,67.40
2019-04-07T16:03:24.250Z,67.90
2019-04-07T16:05:52.313Z,68.00
2019-04-07T16:08:20.131Z,68.50
2019-04-07T16:10:47.793Z,68.40
2019-04-07T16:13:17.395Z,68.70
2019-04-07T16:15:46.346Z,68.80
2019-04-07T16:18:14.714Z,69.10
2019-04-07T16:20:42.004Z,69.10
2019-04-07T16:23:10.284Z,69.10
2019-04-07T16:25:40.223Z,69.70
2019-04-07T16:28:11.393Z,69.70
2019-04-07T16:30:36.383Z,70.10
2019-04-07T16:33:05.459Z,70.20
2019-04-07T16:35:32.854Z,70.60
2019-04-07T16:38:01.427Z,70.70
2019-04-07T16:40:30.269Z,71.50
2019-04-07T16:43:09.500Z,71.20
2019-04-07T16:45:27.196Z,71.30
2019-04-07T16:47:56.438Z,71.40
2019-04-07T16:50:23.814Z,71.50
2019-04-07T16:52:51.261Z,71.40
2019-04-07T16:55:33.022Z,71.40
2019-04-07T16:58:02.053Z,71.40
2019-04-07T17:00:29.405Z,71.40
2019-04-07T17:02:56.923Z,71.30
2019-04-07T17:05:24.852Z,71.40
2019-04-07T17:07:55.488Z,71.70
2019-04-07T17:10:22.944Z,71.90
2019-04-07T17:12:51.397Z,72.20
2019-04-07T17:15:19.136Z,72.40
2019-04-07T17:17:50.938Z,71.90
2019-04-07T17:20:16.073Z,71.90
2019-04-07T17:22:47.085Z,72.30
2019-04-07T17:25:12.862Z,72.00
2019-04-07T17:27:58.429Z,72.20
2019-04-07T17:30:26.213Z,72.00
2019-04-07T17:32:53.724Z,72.20
2019-04-07T17:35:21.303Z,73.00
2019-04-07T17:37:49.383Z,73.50
2019-04-07T17:40:18.577Z,74.10
2019-04-07T17:42:48.155Z,74.40
2019-04-07T17:45:40.704Z,75.40
2019-04-07T17:48:37.066Z,75.40
2019-04-07T17:51:20.353Z,73.90
2019-04-07T17:54:00.395Z,74.20
2019-04-07T17:56:42.818Z,74.70
2019-04-07T17:59:28.401Z,74.60
2019-04-07T18:02:28.047Z,75.00
2019-04-07T18:05:03.213Z,75.30
2019-04-07T18:07:42.810Z,75.30
2019-04-07T18:10:29.374Z,75.80
2019-04-07T18:13:39.518Z,75.70
2019-04-07T18:16:09.443Z,75.90
2019-04-07T18:19:05.755Z,75.90
2019-04-07T18:21:53.874Z,76.10
2019-04-07T18:24:41.133Z,76.60
2019-04-07T18:27:28.001Z,76.90
2019-04-07T18:30:29.830Z,77.20
2019-04-07T18:33:25.092Z,77.50
2019-04-07T18:35:58.308Z,78.20
2019-04-07T18:38:45.049Z,78.20
2019-04-07T18:41:35.714Z,78.60
2019-04-07T18:44:20.703Z,78.80
2019-04-07T18:47:05.672Z,79.00
2019-04-07T18:50:07.142Z,79.30
2019-04-07T18:52:48.584Z,79.60
2019-04-07T18:55:33.277Z,79.90
2019-04-07T18:58:36.255Z,80.20
2019-04-07T19:01:22.197Z,80.50
2019-04-07T19:04:24.943Z,80.60
2019-04-07T19:07:19.414Z,80.90
2019-04-07T19:10:04.392Z,81.00
2019-04-07T19:12:39.419Z,81.20
2019-04-07T19:15:17.848Z,81.20
2019-04-07T19:18:04.675Z,81.40
2019-04-07T19:20:48.348Z,81.40
2019-04-07T19:23:35.306Z,81.70
2019-04-07T19:26:34.722Z,81.60
2019-04-07T19:29:14.120Z,81.80
2019-04-07T19:32:03.890Z,81.80
2019-04-07T19:34:55.201Z,81.90
2019-04-07T19:37:42.246Z,82.10
2019-04-07T19:40:18.800Z,82.40
2019-04-07T19:43:14.647Z,82.50
2019-04-07T19:45:58.535Z,82.90
2019-04-07T19:48:43.854Z,83.00
2019-04-07T19:51:47.300Z,83.00
2019-04-07T19:54:29.240Z,83.10
2019-04-07T19:57:15.642Z,83.40
2019-04-07T20:00:13.112Z,83.40
2019-04-07T20:03:09.591Z,83.40
2019-04-07T20:05:56.215Z,83.50
2019-04-07T20:08:36.267Z,83.30
2019-04-07T20:11:28.471Z,83.30
2019-04-07T20:14:16.031Z,83.30
2019-04-07T20:16:53.485Z,83.70
2019-04-07T20:19:38.521Z,84.20
2019-04-07T20:22:23.140Z,85.30
2019-04-07T20:25:13.124Z,85.30
2019-04-07T20:27:47.851Z,85.10
2019-04-07T20:30:21.256Z,85.30
2019-04-07T20:33:13.838Z,85.10
2019-04-07T20:36:01.087Z,85.10
2019-04-07T20:38:51.211Z,85.00
2019-04-07T20:41:29.398Z,85.30
2019-04-07T20:44:08.528Z,85.50
2019-04-07T20:46:45.809Z,85.40
2019-04-07T20:49:30.260Z,85.30
2019-04-07T20:52:30.163Z,85.10
2019-04-07T20:55:19.785Z,86.20
2019-04-07T20:58:16.272Z,87.20
2019-04-07T21:01:00.585Z,88.00
2019-04-07T21:03:47.638Z,88.60
2019-04-07T21:06:30.435Z,89.50
2019-04-07T21:09:17.464Z,89.30
2019-04-07T21:11:58.725Z,89.20
2019-04-07T21:14:55.049Z,89.60
2019-04-07T21:17:45.002Z,89.20
2019-04-07T21:20:38.969Z,89.00
2019-04-07T21:23:32.811Z,89.00
2019-04-07T21:26:18.627Z,89.20
2019-04-07T21:29:14.921Z,89.30
2019-04-07T21:32:09.790Z,88.60
2019-04-07T21:35:11.486Z,89.10
2019-04-07T21:37:56.579Z,89.10
2019-04-07T21:40:43.666Z,89.40
2019-04-07T21:43:30.750Z,88.90
2019-04-07T21:46:14.010Z,89.00
2019-04-07T21:49:02.631Z,88.60
2019-04-07T21:52:02.546Z,88.80
2019-04-07T21:54:55.668Z,88.70
2019-04-07T21:57:40.722Z,88.90
2019-04-07T22:00:19.646Z,89.00
2019-04-07T22:03:23.949Z,89.60
2019-04-07T22:06:00.660Z,89.50
2019-04-07T22:09:00.318Z,89.80
2019-04-07T22:11:29.307Z,89.60
2019-04-07T22:13:57.538Z,89.90
2019-04-07T22:16:25.603Z,90.30
2019-04-07T22:18:54.231Z,90.60
2019-04-07T22:21:22.278Z,90.30
2019-04-07T22:23:50.701Z,89.60
2019-04-07T22:26:19.241Z,89.70
2019-04-07T22:28:48.268Z,89.10
2019-04-07T22:31:18.826Z,89.20
2019-04-07T22:33:46.618Z,89.50
2019-04-07T22:36:15.266Z,89.20
2019-04-07T22:38:43.247Z,89.00
2019-04-07T22:41:11.240Z,89.20
2019-04-07T22:43:39.234Z,88.90
2019-04-07T22:46:16.498Z,88.70
2019-04-07T22:48:36.880Z,89.00
2019-04-07T22:51:09.491Z,89.00
2019-04-07T22:53:33.421Z,88.90
2019-04-07T22:56:04.756Z,88.60
2019-04-07T22:58:30.064Z,88.50
2019-04-07T23:00:57.434Z,88.10
2019-04-07T23:03:25.969Z,88.50
2019-04-07T23:05:53.538Z,87.90
2019-04-07T23:08:20.889Z,88.40
2019-04-07T23:10:48.378Z,87.70
2019-04-07T23:13:15.708Z,87.90
2019-04-07T23:15:45.863Z,87.60
2019-04-07T23:18:12.672Z,87.60
2019-04-07T23:20:41.734Z,87.80
2019-04-07T23:23:09.228Z,87.40
2019-04-07T23:25:36.568Z,87.50
2019-04-07T23:28:03.786Z,87.90
2019-04-07T23:30:31.412Z,87.50
2019-04-07T23:32:58.929Z,87.80
2019-04-07T23:35:26.263Z,88.00
2019-04-07T23:37:53.452Z,87.80
2019-04-07T23:40:20.762Z,88.00
2019-04-07T23:42:48.771Z,88.10
2019-04-07T23:45:16.573Z,88.10
2019-04-07T23:47:44.865Z,87.80
2019-04-07T23:50:12.723Z,88.00
2019-04-07T23:52:39.954Z,88.00
2019-04-07T23:55:07.711Z,87.60
2019-04-07T23:57:34.947Z,87.80
